createdAt,value
2017-10-17T06:13:58.441Z,30.47
2017-10-17T06:16:27.579Z,35.57
2017-10-17T06:18:55.964Z,36.20
2017-10-17T06:21:24.916Z,28.67
2017-10-17T06:23:53.304Z,29.73
2017-10-17T06:26:21.692Z,32.73
2017-10-17T06:28:50.066Z,27.63
2017-10-17T06:31:18.453Z,27.57
2017-10-17T06:33:46.848Z,25.97
2017-10-17T06:36:15.266Z,27.90
2017-10-17T06:38:43.763Z,31.27
2017-10-17T06:41:12.452Z,26.00
2017-10-17T06:43:40.827Z,34.67
2017-10-17T06:46:09.022Z,31.33
2017-10-17T06:48:37.408Z,27.47
2017-10-17T06:51:05.788Z,31.40
2017-10-17T06:53:34.327Z,31.00
2017-10-17T06:56:02.704Z,28.60
2017-10-17T06:58:31.903Z,33.53
2017-10-17T07:00:59.887Z,30.47
2017-10-17T07:03:28.280Z,33.53
2017-10-17T07:05:56.870Z,28.10
2017-10-17T07:08:25.246Z,35.60
2017-10-17T07:10:53.442Z,29.77
2017-10-17T07:13:21.955Z,35.63
2017-10-17T07:15:50.322Z,30.63
2017-10-17T07:18:18.756Z,39.73
2017-10-17T07:20:47.138Z,31.10
2017-10-17T07:23:15.555Z,24.90
2017-10-17T07:25:43.931Z,25.43
2017-10-17T07:28:11.639Z,27.23
2017-10-17T07:30:40.043Z,29.80
2017-10-17T07:33:08.853Z,28.53
2017-10-17T07:35:37.637Z,31.33
2017-10-17T07:38:05.654Z,23.63
2017-10-17T07:40:34.040Z,27.60
2017-10-17T07:43:02.407Z,27.90
2017-10-17T07:45:30.485Z,33.03
2017-10-17T07:47:58.860Z,33.00
2017-10-17T07:50:27.230Z,31.13
2017-10-17T07:52:55.421Z,27.63
2017-10-17T07:55:24.563Z,31.20
2017-10-17T07:57:52.951Z,33.83
2017-10-17T08:00:20.656Z,29.87
2017-10-17T08:02:49.028Z,29.73
2017-10-17T08:05:16.529Z,31.40
2017-10-17T08:07:44.215Z,32.23
2017-10-17T08:10:12.830Z,26.93
2017-10-17T08:12:41.126Z,30.63
2017-10-17T08:15:09.808Z,39.07
2017-10-17T08:17:38.186Z,33.07
2017-10-17T08:20:06.572Z,32.73
2017-10-17T08:22:34.951Z,30.27
2017-10-17T08:25:03.320Z,31.67
2017-10-17T08:27:31.696Z,26.03
2017-10-17T08:30:00.295Z,32.17
2017-10-17T08:32:28.900Z,31.80
2017-10-17T08:34:57.356Z,27.40
2017-10-17T08:37:25.743Z,35.63
2017-10-17T08:39:54.108Z,32.90
2017-10-17T08:42:22.488Z,32.67
2017-10-17T08:44:50.858Z,33.43
2017-10-17T08:47:19.310Z,36.03
2017-10-17T08:49:47.487Z,29.50
2017-10-17T08:52:15.681Z,33.83
2017-10-17T08:54:43.867Z,35.17
2017-10-17T08:57:12.179Z,39.30
2017-10-17T08:59:41.191Z,39.87
2017-10-17T09:02:09.385Z,33.30
2017-10-17T09:04:37.772Z,34.30
2017-10-17T09:07:06.164Z,42.10
2017-10-17T09:09:34.702Z,27.50
2017-10-17T09:12:02.887Z,30.37
2017-10-17T09:14:31.264Z,33.83
2017-10-17T09:16:59.822Z,37.13
2017-10-17T09:19:28.251Z,35.30
2017-10-17T09:21:56.723Z,36.10
2017-10-17T09:24:25.129Z,34.17
2017-10-17T09:26:53.508Z,32.97
2017-10-17T09:29:22.011Z,38.00
2017-10-17T09:34:30.819Z,42.07
2017-10-17T09:37:00.076Z,34.23
2017-10-17T09:46:49.454Z,34.33
2017-10-17T09:49:17.829Z,32.83
2017-10-17T09:51:46.299Z,41.20
2017-10-17T09:54:14.985Z,34.73
2017-10-17T09:56:43.351Z,35.13
2017-10-17T09:59:11.814Z,29.60
2017-10-17T10:01:40.113Z,34.63
2017-10-17T10:04:08.300Z,34.07
2017-10-17T10:06:36.491Z,32.53
2017-10-17T10:09:04.318Z,39.07
2017-10-17T10:11:32.698Z,36.43
2017-10-17T10:14:01.074Z,34.47
2017-10-17T10:16:29.482Z,36.93
2017-10-17T10:18:57.667Z,36.67
2017-10-17T10:21:26.043Z,35.93
2017-10-17T10:23:54.572Z,28.67
2017-10-17T10:26:22.597Z,39.50
2017-10-17T10:28:50.976Z,34.67
2017-10-17T10:31:19.363Z,35.43
2017-10-17T10:33:48.515Z,33.50
2017-10-17T10:36:16.890Z,40.63
2017-10-17T10:38:45.095Z,35.53
2017-10-17T10:41:13.471Z,30.60
2017-10-17T10:43:41.989Z,37.43
2017-10-17T10:46:10.369Z,30.70
2017-10-17T10:48:38.765Z,36.53
2017-10-17T10:51:07.170Z,35.90
2017-10-17T10:53:35.551Z,43.93
2017-10-17T10:56:03.929Z,37.20
2017-10-17T10:58:32.111Z,41.17
2017-10-17T11:01:00.518Z,33.97
2017-10-17T11:03:28.997Z,38.27
2017-10-17T11:05:57.587Z,44.80
2017-10-17T11:08:26.060Z,42.40
2017-10-17T11:10:54.473Z,44.50
2017-10-17T11:13:23.055Z,42.33
2017-10-17T11:15:51.492Z,51.43
2017-10-17T11:18:21.128Z,41.17
2017-10-17T11:20:49.496Z,50.23
2017-10-17T11:23:18.572Z,39.80
2017-10-17T11:25:47.777Z,52.30
2017-10-17T11:28:16.240Z,52.30
2017-10-17T11:30:44.425Z,51.47
2017-10-17T11:33:12.795Z,43.43
2017-10-17T11:35:41.180Z,50.07
2017-10-17T11:38:09.640Z,47.40
2017-10-17T11:43:50.325Z,41.23
2017-10-17T11:46:18.709Z,46.20
2017-10-17T11:48:47.178Z,48.23
2017-10-17T11:51:15.558Z,41.80
2017-10-17T11:53:43.960Z,42.00
2017-10-17T11:56:11.998Z,39.27
2017-10-17T11:58:40.374Z,42.00
2017-10-17T12:01:08.768Z,43.00
2017-10-17T12:03:37.139Z,38.33
2017-10-17T12:06:05.506Z,40.90
2017-10-17T12:08:33.896Z,45.27
2017-10-17T12:11:02.272Z,41.27
2017-10-17T12:13:29.971Z,48.23
2017-10-17T12:15:58.784Z,38.40
2017-10-17T12:18:26.820Z,41.00
2017-10-17T12:20:55.211Z,59.13
2017-10-17T12:23:23.727Z,47.83
2017-10-17T12:25:52.072Z,45.73
2017-10-17T12:28:21.209Z,44.00
2017-10-17T12:30:49.269Z,42.60
2017-10-17T12:33:17.839Z,45.90
2017-10-17T12:35:46.222Z,44.80
2017-10-17T12:38:14.597Z,42.70
2017-10-17T12:40:43.044Z,41.63
2017-10-17T12:43:11.431Z,43.17
2017-10-17T12:45:39.796Z,40.20
2017-10-17T12:48:08.195Z,45.53
2017-10-17T12:50:36.587Z,48.83
2017-10-17T12:53:04.768Z,42.07
2017-10-17T12:55:32.960Z,36.53
2017-10-17T12:58:01.349Z,40.50
2017-10-17T13:00:29.542Z,37.33
2017-10-17T13:02:57.939Z,41.10
2017-10-17T13:05:26.417Z,39.40
2017-10-17T13:07:55.101Z,41.50
2017-10-17T13:10:23.473Z,39.83
2017-10-17T13:12:52.059Z,38.03
2017-10-17T13:15:19.887Z,37.20
2017-10-17T13:17:48.343Z,50.20
2017-10-17T13:20:16.720Z,44.03
2017-10-17T13:22:45.983Z,39.90
2017-10-17T13:25:15.399Z,42.40
2017-10-17T13:27:43.788Z,44.40
2017-10-17T13:30:12.175Z,38.20
2017-10-17T13:32:40.554Z,36.13
2017-10-17T13:35:08.936Z,44.43
2017-10-17T13:37:37.455Z,42.43
2017-10-17T13:40:06.137Z,43.13
2017-10-17T13:42:34.512Z,39.63
2017-10-17T13:45:02.528Z,48.00
2017-10-17T13:47:30.755Z,40.50
2017-10-17T13:49:59.135Z,46.83
2017-10-17T13:52:27.514Z,43.30
2017-10-17T13:54:55.990Z,40.13
2017-10-17T13:57:24.463Z,50.83
2017-10-17T13:59:52.835Z,47.87
2017-10-17T14:02:21.217Z,41.27
2017-10-17T14:04:49.587Z,39.93
2017-10-17T14:07:18.422Z,39.93
2017-10-17T14:09:46.853Z,39.07
2017-10-17T14:12:15.220Z,36.73
2017-10-17T14:14:43.591Z,38.63
2017-10-17T14:17:12.059Z,35.23
2017-10-17T14:19:40.822Z,41.37
2017-10-17T14:22:08.848Z,43.90
2017-10-17T14:24:37.218Z,46.53
2017-10-17T14:27:05.655Z,45.97
2017-10-17T14:29:34.018Z,40.30
2017-10-17T14:32:02.430Z,46.40
2017-10-17T14:34:30.916Z,40.23
2017-10-17T14:37:00.017Z,41.50
2017-10-17T14:39:28.414Z,42.33
2017-10-17T14:41:56.968Z,39.63
2017-10-17T14:44:25.368Z,41.50
2017-10-17T14:46:53.966Z,40.97
2017-10-17T14:49:22.401Z,33.93
2017-10-17T14:51:50.682Z,38.13
2017-10-17T14:54:19.048Z,35.83
2017-10-17T14:56:47.426Z,35.13
2017-10-17T14:59:15.905Z,52.30
2017-10-17T15:01:44.286Z,41.60
2017-10-17T15:04:12.663Z,32.90
2017-10-17T15:06:41.048Z,36.17
2017-10-17T15:09:09.440Z,46.50
2017-10-17T15:11:38.195Z,41.43
2017-10-17T15:14:06.557Z,43.17
2017-10-17T15:16:34.935Z,38.20
2017-10-17T15:19:03.322Z,37.77
2017-10-17T15:21:31.688Z,36.70
2017-10-17T15:24:00.057Z,37.20
2017-10-17T15:26:28.455Z,44.00
2017-10-17T15:28:56.522Z,43.37
2017-10-17T15:31:25.202Z,43.57
2017-10-17T15:33:53.657Z,37.20
2017-10-17T15:36:23.738Z,40.13
2017-10-17T15:38:52.483Z,45.03
2017-10-17T15:41:21.484Z,40.40
2017-10-17T15:43:50.665Z,43.00
2017-10-17T15:46:19.116Z,44.00
2017-10-17T15:48:47.516Z,38.77
2017-10-17T15:51:15.910Z,39.70
2017-10-17T15:53:44.707Z,54.37
2017-10-17T15:56:13.090Z,45.63
2017-10-17T15:58:41.596Z,46.50
2017-10-17T16:01:10.741Z,40.67
2017-10-17T16:03:39.124Z,42.67
2017-10-17T16:06:07.513Z,44.27
2017-10-17T16:08:35.938Z,43.80
2017-10-17T16:11:04.322Z,48.57
2017-10-17T16:13:32.711Z,42.50
2017-10-17T16:16:01.105Z,40.83
2017-10-17T16:18:29.562Z,48.93
2017-10-17T16:20:58.147Z,45.37
2017-10-17T16:23:26.520Z,43.43
2017-10-17T16:25:54.907Z,47.90
2017-10-17T16:28:23.295Z,49.80
2017-10-17T16:30:51.657Z,50.50
2017-10-17T16:33:20.052Z,49.13
2017-10-17T16:35:48.630Z,49.30
2017-10-17T16:38:17.011Z,46.40
2017-10-17T16:40:45.418Z,43.73
2017-10-17T16:43:14.572Z,46.67
2017-10-17T16:45:43.680Z,53.20
2017-10-17T16:48:12.294Z,50.30
2017-10-17T16:50:40.908Z,52.60
2017-10-17T16:53:09.591Z,45.70
2017-10-17T16:55:38.039Z,44.47
2017-10-17T16:58:06.772Z,53.67
2017-10-17T17:00:35.363Z,50.67
2017-10-17T17:03:04.155Z,57.90
2017-10-17T17:05:32.537Z,45.83
2017-10-17T17:08:00.920Z,49.03
2017-10-17T17:10:29.301Z,45.57
2017-10-17T17:12:57.689Z,50.03
2017-10-17T17:15:26.067Z,43.23
2017-10-17T17:17:55.222Z,50.30
2017-10-17T17:20:23.410Z,47.93
2017-10-17T17:22:51.787Z,41.87
2017-10-17T17:25:20.167Z,47.07
2017-10-17T17:27:48.595Z,49.77
2017-10-17T17:30:16.977Z,45.77
2017-10-17T17:32:45.450Z,44.57
2017-10-17T17:35:14.069Z,55.30
2017-10-17T17:37:42.460Z,52.50
2017-10-17T17:40:11.875Z,54.97
2017-10-17T17:42:40.255Z,59.37
2017-10-17T17:45:09.417Z,53.97
2017-10-17T17:47:37.817Z,51.40
2017-10-17T17:50:06.227Z,41.50
2017-10-17T17:52:35.564Z,46.53
2017-10-17T17:55:04.207Z,41.67
2017-10-17T17:57:32.592Z,53.30
2017-10-17T18:00:00.987Z,44.00
2017-10-17T18:02:29.378Z,43.67
2017-10-17T18:04:57.743Z,47.90
2017-10-17T18:07:26.139Z,47.00
2017-10-17T18:09:54.506Z,58.43
2017-10-17T18:12:22.897Z,42.53
2017-10-17T18:14:51.076Z,45.30
2017-10-17T18:17:19.914Z,44.33
2017-10-17T18:19:48.283Z,50.77
2017-10-17T18:22:16.654Z,45.83
2017-10-17T18:24:45.037Z,52.67
2017-10-17T18:27:13.422Z,50.43
2017-10-17T18:29:42.498Z,54.43
2017-10-17T18:32:11.115Z,48.93
2017-10-17T18:34:39.496Z,45.23
2017-10-17T18:37:07.971Z,49.73
2017-10-17T18:39:36.615Z,45.80
2017-10-17T18:42:05.138Z,47.67
2017-10-17T18:44:33.569Z,45.43
2017-10-17T18:47:02.022Z,52.73
2017-10-17T18:49:33.112Z,41.10
2017-10-17T18:52:01.489Z,47.00
2017-10-17T18:54:29.950Z,44.00
2017-10-17T18:56:58.724Z,46.40
2017-10-17T18:59:28.116Z,46.90
2017-10-17T19:01:56.301Z,43.73
2017-10-17T19:04:26.572Z,43.37
2017-10-17T19:06:54.995Z,42.90
2017-10-17T19:09:23.386Z,47.87
2017-10-17T19:11:51.848Z,44.03
2017-10-17T19:14:20.233Z,45.60
2017-10-17T19:16:48.623Z,40.20
2017-10-17T19:19:17.005Z,48.70
2017-10-17T19:21:45.384Z,49.20
2017-10-17T19:24:13.770Z,55.10
2017-10-17T19:26:42.160Z,50.70
2017-10-17T19:29:10.568Z,49.33
2017-10-17T19:31:38.960Z,46.83
2017-10-17T19:34:07.537Z,48.53
2017-10-17T19:36:35.928Z,45.50
2017-10-17T19:39:03.489Z,44.90
2017-10-17T19:41:31.888Z,52.90
2017-10-17T19:44:01.562Z,42.50
2017-10-17T19:46:29.942Z,50.90
2017-10-17T19:48:58.405Z,47.60
2017-10-17T19:51:26.785Z,52.70
2017-10-17T19:53:55.172Z,43.50
2017-10-17T19:56:23.844Z,52.60
2017-10-17T19:58:52.235Z,38.13
2017-10-17T20:01:20.733Z,46.97
2017-10-17T20:03:49.128Z,54.00
2017-10-17T20:06:17.504Z,52.20
2017-10-17T20:08:45.893Z,46.27
2017-10-17T20:11:14.403Z,48.77
2017-10-17T20:13:42.542Z,41.10
2017-10-17T20:16:10.931Z,50.30
2017-10-17T20:18:39.019Z,49.40
2017-10-17T20:21:07.164Z,44.60
2017-10-17T20:23:35.258Z,48.40
2017-10-17T20:26:03.626Z,45.83
2017-10-17T20:28:31.813Z,48.63
2017-10-17T20:31:00.157Z,45.13
2017-10-17T20:33:28.452Z,42.67
2017-10-17T20:35:56.737Z,42.10
2017-10-17T20:38:25.108Z,47.40
2017-10-17T20:40:53.493Z,47.17
2017-10-17T20:43:22.088Z,45.40
2017-10-17T20:45:50.455Z,51.00
2017-10-17T20:48:19.018Z,51.37
2017-10-17T20:50:47.391Z,46.33
2017-10-17T20:53:15.769Z,52.03
2017-10-17T20:55:44.155Z,46.10
2017-10-17T20:58:12.518Z,48.93
2017-10-17T21:00:40.712Z,51.00
2017-10-17T21:03:08.963Z,43.20
2017-10-17T21:05:37.344Z,46.60
2017-10-17T21:08:05.724Z,46.80
2017-10-17T21:10:34.111Z,49.87
2017-10-17T21:13:02.570Z,49.10
2017-10-17T21:15:30.259Z,50.10
2017-10-17T21:17:58.647Z,55.07
2017-10-17T21:20:27.286Z,53.67
2017-10-17T21:22:55.670Z,54.10
2017-10-17T21:25:23.528Z,49.03
2017-10-17T21:27:52.061Z,59.27
2017-10-17T21:30:20.450Z,46.30
2017-10-17T21:32:48.828Z,55.63
2017-10-17T21:35:17.218Z,44.97
2017-10-17T21:37:45.598Z,55.73
2017-10-17T21:40:13.986Z,49.40
2017-10-17T21:42:42.664Z,49.13
2017-10-17T21:45:11.274Z,47.83
2017-10-17T21:47:39.655Z,55.20
2017-10-17T21:50:08.109Z,48.57
2017-10-17T21:52:36.479Z,52.57
2017-10-17T21:55:04.933Z,51.93
2017-10-17T21:57:34.070Z,56.20
2017-10-17T22:00:02.459Z,53.23
2017-10-17T22:02:30.841Z,65.30
2017-10-17T22:04:59.307Z,53.33
2017-10-17T22:07:27.685Z,45.87
2017-10-17T22:09:56.340Z,51.33
2017-10-17T22:12:24.707Z,50.60
2017-10-17T22:14:53.751Z,51.73
2017-10-17T22:17:22.891Z,46.43
2017-10-17T22:19:51.258Z,50.10
2017-10-17T22:22:19.628Z,53.57
2017-10-17T22:24:48.079Z,47.57
2017-10-17T22:27:16.709Z,54.17
2017-10-17T22:29:45.294Z,56.53
2017-10-17T22:32:13.671Z,46.63
2017-10-17T22:34:42.354Z,47.67
2017-10-17T22:37:10.753Z,53.73
2017-10-17T22:39:39.133Z,50.80
2017-10-17T22:42:07.565Z,57.53
2017-10-17T22:44:35.955Z,49.80
2017-10-17T22:47:04.329Z,49.47
2017-10-17T22:49:32.607Z,46.40
2017-10-17T22:52:01.291Z,47.77
2017-10-17T22:54:29.652Z,51.50
2017-10-17T22:56:58.109Z,51.43
2017-10-17T22:59:26.486Z,45.10
2017-10-17T23:01:54.862Z,48.10
2017-10-17T23:04:23.272Z,48.77
2017-10-17T23:06:51.545Z,44.73
2017-10-17T23:09:20.021Z,43.27
2017-10-17T23:11:48.388Z,49.17
2017-10-17T23:14:16.365Z,47.13
2017-10-17T23:16:55.898Z,44.63
2017-10-17T23:19:35.453Z,48.30
2017-10-17T23:22:03.827Z,46.93
2017-10-17T23:24:32.218Z,53.13
2017-10-17T23:27:00.772Z,45.77
2017-10-17T23:29:29.217Z,53.40
2017-10-17T23:31:57.830Z,43.83
2017-10-17T23:34:26.206Z,46.90
2017-10-17T23:36:54.582Z,55.77
2017-10-17T23:39:22.767Z,58.83
2017-10-17T23:41:50.953Z,47.00
2017-10-17T23:44:19.327Z,46.80
2017-10-17T23:46:47.879Z,52.57
2017-10-17T23:49:16.258Z,48.03
2017-10-17T23:51:44.735Z,47.23
2017-10-17T23:54:13.104Z,47.60
2017-10-17T23:56:41.490Z,46.40
2017-10-17T23:59:09.886Z,46.53
